logo
Rechercher aéroport 
image banner adimage banner adimage banner ad
image banner ad

VT39 - Taylor

Situé à Wolcott, United States

ICAO - VT39, IATA -

Données fournies par Airmate  

Information générale

Coordonnées: N44°36'27" W72°28'49"
Élévation : 1140 feet MSL.
Variation magnétique : -16° East
Voir autres Aéroports à Vermont

Données opérationnelles

Special qualification required
Heure actuelle UTC:
Heure actuelle locale:
Météo à : KMVL - Morrisville-Stowe State ( 13 km )
METAR: KMVL 220754Z AUTO 00000KT 10SM BKN110 18/16 A2987 RMK AO2 SLP112 T01780161
Voir NOTAMs / SUP AIP / TFR affectant cet aéroport [VIEW]
Fréquences de communication: [VIEW]

Pistes:

Identifiant RWYQFULongueur (ft)Largeur (ft)SurfaceLDA (ft)
NW2000100GRASS
SE2000100GRASS

Coordonnées de l'aéroport

Adresse: Wolcott United States

Vue satellite de VT39